»·PEaware :: WAT234 KHAF-KRNO

WAT234 :: KHAF-KRNO

FLIGHT INFORMATION

Flight Status: Arrived
Operator:
Walker Air Transport
More flights by this operator :: More flights under this callsign
Pilot: Eduardo Elias G. (24838)
Aircraft: CIRRUS SR-22
(SR22)
More flights by this aircraft type
Origin: KHAF Half Moon Bay
United States
Destination: KRNO Reno/Tahoe Intl
United States
More flights between these airports :: More routes between these airports
Route: OSI OAK V6 SAC V392 FMG
File this flight plan on PilotEdge
Remarks:
Altitude:
(Current/Filed)
13,000ft
Speed:
(Current/Filed)
160kts
Departed: 21-Aug-20 08:39 PM
Arrived: 21-Aug-20 10:02 PM
Distance/Time
Traveled:
175nm/1:23
Distance/Time
To Go:
Arrived

Flight Plot

Page will automatically refresh every two minutes.

Flight plan parsing failed; only flown route is shown


Map Options




Map Legend


Flown Route
Filed Route
Departure Airport
Arrival Airport
Navaid (VOR, NDB)
Fix

Horizontal Profiles

Position Reports

Time Latitude Longitude Heading Altitude Ground
Speed
21-Aug-20 19:53 37.513564 -122.495717 305 48ft 0kts
21-Aug-20 19:54 37.513564 -122.495717 305 48ft 0kts
21-Aug-20 19:55 37.513564 -122.495717 305 48ft 0kts
21-Aug-20 19:56 37.513564 -122.495717 305 48ft 0kts
21-Aug-20 19:57 37.513564 -122.495716 305 48ft 0kts
21-Aug-20 19:58 37.513564 -122.495716 305 48ft 0kts
21-Aug-20 19:59 37.513564 -122.495716 305 48ft 0kts
21-Aug-20 20:00 37.513564 -122.495716 305 48ft 0kts
21-Aug-20 20:01 37.513564 -122.495716 305 48ft 0kts
21-Aug-20 20:02 37.513564 -122.495716 305 48ft 0kts
21-Aug-20 20:03 37.513564 -122.495716 305 48ft 0kts
21-Aug-20 20:04 37.513564 -122.495716 305 48ft 0kts
21-Aug-20 20:05 37.513564 -122.495716 305 48ft 0kts
21-Aug-20 20:06 37.513564 -122.495716 305 48ft 0kts
21-Aug-20 20:07 37.513564 -122.495716 305 48ft 0kts
21-Aug-20 20:08 37.513564 -122.495716 305 48ft 0kts
21-Aug-20 20:09 37.513564 -122.495716 305 48ft 0kts
21-Aug-20 20:10 37.513564 -122.495716 305 48ft 0kts
21-Aug-20 20:11 37.513564 -122.495716 305 48ft 0kts
21-Aug-20 20:12 37.513564 -122.495716 305 48ft 0kts
21-Aug-20 20:13 37.513564 -122.495716 305 48ft 0kts
21-Aug-20 20:14 37.513564 -122.495716 305 48ft 0kts
21-Aug-20 20:15 37.513564 -122.495716 305 48ft 0kts
21-Aug-20 20:16 37.513564 -122.495716 305 48ft 0kts
21-Aug-20 20:17 37.513564 -122.495716 305 48ft 0kts
21-Aug-20 20:18 37.513564 -122.495717 305 48ft 0kts
21-Aug-20 20:19 37.513564 -122.495717 305 48ft 0kts
21-Aug-20 20:20 37.513564 -122.495717 305 48ft 0kts
21-Aug-20 20:21 37.513564 -122.495717 305 48ft 0kts
21-Aug-20 20:22 37.513564 -122.495717 305 48ft 0kts
21-Aug-20 20:23 37.513577 -122.495977 268 48ft 4kts
21-Aug-20 20:24 37.514756 -122.498340 305 48ft 11kts
21-Aug-20 20:25 37.517242 -122.502981 309 48ft 18kts
21-Aug-20 20:26 37.519170 -122.506239 178 48ft 0kts
21-Aug-20 20:27 37.519170 -122.506239 178 48ft 0kts
21-Aug-20 20:28 37.519170 -122.506239 178 48ft 0kts
21-Aug-20 20:29 37.519170 -122.506239 178 48ft 0kts
21-Aug-20 20:30 37.519170 -122.506239 178 48ft 0kts
21-Aug-20 20:31 37.519170 -122.506239 178 48ft 0kts
21-Aug-20 20:32 37.519170 -122.506239 178 48ft 0kts
21-Aug-20 20:33 37.519170 -122.506239 178 48ft 0kts
21-Aug-20 20:34 37.519170 -122.506239 178 48ft 0kts
21-Aug-20 20:35 37.519148 -122.506238 177 48ft 1kts
21-Aug-20 20:36 37.518864 -122.506370 223 48ft 0kts
21-Aug-20 20:37 37.518809 -122.506437 226 48ft 4kts
21-Aug-20 20:38 37.513537 -122.501249 140 127ft 96kts
21-Aug-20 20:39 37.490086 -122.474179 137 1476ft 115kts
21-Aug-20 20:40 37.465618 -122.443163 137 2740ft 133kts
21-Aug-20 20:41 37.441839 -122.407986 114 4074ft 132kts
21-Aug-20 20:42 37.426096 -122.366984 115 5210ft 130kts
21-Aug-20 20:44 37.410305 -122.326485 116 6246ft 127kts
21-Aug-20 20:45 37.397057 -122.285419 75 7043ft 129kts
21-Aug-20 20:46 37.427456 -122.271419 2 7780ft 126kts
21-Aug-20 20:47 37.462649 -122.266156 3 8683ft 128kts
21-Aug-20 20:48 37.498554 -122.260448 3 9532ft 132kts
21-Aug-20 20:49 37.535309 -122.254535 3 10287ft 135kts
21-Aug-20 20:50 37.572993 -122.248453 3 10990ft 138kts
21-Aug-20 20:51 37.611752 -122.242188 4 11650ft 141kts
21-Aug-20 20:52 37.651150 -122.235830 4 12278ft 143kts
21-Aug-20 20:53 37.691040 -122.229353 4 12876ft 145kts
21-Aug-20 20:54 37.732420 -122.217171 38 13057ft 169kts
21-Aug-20 20:55 37.770462 -122.178272 38 13048ft 179kts
21-Aug-20 20:56 37.809586 -122.138268 38 13042ft 181kts
21-Aug-20 20:57 37.848826 -122.098113 38 13038ft 182kts
21-Aug-20 20:58 37.888208 -122.057753 38 13039ft 182kts
21-Aug-20 20:58 37.921036 -122.024068 38 13045ft 182kts
21-Aug-20 21:00 37.966821 -121.977024 38 13047ft 182kts
21-Aug-20 21:01 38.006313 -121.936378 38 13047ft 182kts
21-Aug-20 21:02 38.047889 -121.893526 38 13047ft 182kts
21-Aug-20 21:03 38.087273 -121.852878 38 13047ft 182kts
21-Aug-20 21:03 38.119757 -121.819310 38 13044ft 182kts
21-Aug-20 21:05 38.165418 -121.772084 36 13090ft 181kts
21-Aug-20 21:05 38.201018 -121.743733 31 13091ft 182kts
21-Aug-20 21:06 38.244055 -121.709787 30 13091ft 182kts
21-Aug-20 21:08 38.294533 -121.669911 30 13057ft 183kts
21-Aug-20 21:08 38.330753 -121.641270 30 13033ft 184kts
21-Aug-20 21:09 38.374332 -121.606779 31 13003ft 185kts
21-Aug-20 21:10 38.418035 -121.572139 31 12981ft 185kts
21-Aug-20 21:11 38.460393 -121.535206 37 12982ft 184kts
21-Aug-20 21:12 38.500794 -121.494992 37 12991ft 184kts
21-Aug-20 21:13 38.541214 -121.454706 37 12991ft 184kts
21-Aug-20 21:14 38.580483 -121.413264 53 12989ft 183kts
21-Aug-20 21:15 38.610523 -121.360505 55 12997ft 184kts
21-Aug-20 21:16 38.639898 -121.307618 56 12997ft 184kts
21-Aug-20 21:17 38.669416 -121.254292 56 12999ft 184kts
21-Aug-20 21:18 38.698981 -121.200758 56 13000ft 184kts
21-Aug-20 21:19 38.728456 -121.147310 56 13031ft 183kts
21-Aug-20 21:20 38.758053 -121.093554 56 13071ft 182kts
21-Aug-20 21:21 38.788212 -121.038669 56 12876ft 189kts
21-Aug-20 21:22 38.818508 -120.983460 56 12887ft 185kts
21-Aug-20 21:23 38.848771 -120.928203 56 12888ft 184kts
21-Aug-20 21:24 38.878313 -120.874168 56 12892ft 184kts
21-Aug-20 21:25 38.907749 -120.820251 56 12921ft 183kts
21-Aug-20 21:26 38.936490 -120.767520 56 12966ft 183kts
21-Aug-20 21:27 38.965452 -120.714285 56 13024ft 182kts
21-Aug-20 21:28 38.994518 -120.660774 56 13054ft 183kts
21-Aug-20 21:29 39.021410 -120.611195 56 13081ft 183kts
21-Aug-20 21:30 39.045678 -120.566375 56 13102ft 184kts
21-Aug-20 21:31 39.069179 -120.522913 56 13103ft 185kts
21-Aug-20 21:32 39.098038 -120.469469 56 13108ft 185kts
21-Aug-20 21:33 39.124093 -120.421140 56 13109ft 184kts
21-Aug-20 21:34 39.146921 -120.378742 56 13109ft 184kts
21-Aug-20 21:35 39.168907 -120.337851 57 13108ft 184kts
21-Aug-20 21:36 39.205168 -120.270278 57 13108ft 184kts
21-Aug-20 21:37 39.248241 -120.189783 57 13092ft 184kts
21-Aug-20 21:38 39.277438 -120.135146 57 13071ft 185kts
21-Aug-20 21:39 39.306664 -120.080360 57 13050ft 185kts
21-Aug-20 21:40 39.336875 -120.023629 56 12614ft 200kts
21-Aug-20 21:41 39.368787 -119.963578 56 12088ft 202kts
21-Aug-20 21:42 39.399459 -119.905787 56 12015ft 188kts
21-Aug-20 21:43 39.428652 -119.850665 56 12017ft 184kts
21-Aug-20 21:44 39.457622 -119.795871 56 12018ft 184kts
21-Aug-20 21:45 39.486478 -119.741230 56 12018ft 183kts
21-Aug-20 21:46 39.517529 -119.682263 55 11168ft 209kts
21-Aug-20 21:47 39.566011 -119.649032 6 10199ft 209kts
21-Aug-20 21:48 39.620280 -119.638044 5 10039ft 186kts
21-Aug-20 21:49 39.670504 -119.627845 5 10059ft 181kts
21-Aug-20 21:50 39.720195 -119.624929 349 10065ft 178kts
21-Aug-20 21:51 39.769633 -119.632146 349 10008ft 181kts
21-Aug-20 21:52 39.814043 -119.651584 281 9745ft 177kts
21-Aug-20 21:53 39.815628 -119.717558 268 8935ft 187kts
21-Aug-20 21:54 39.793313 -119.764836 187 8603ft 177kts
21-Aug-20 21:55 39.744614 -119.766098 182 8535ft 174kts
21-Aug-20 21:56 39.693037 -119.767043 189 7779ft 188kts
21-Aug-20 21:57 39.639507 -119.766412 183 6911ft 196kts
21-Aug-20 21:58 39.586330 -119.766665 181 5857ft 162kts
21-Aug-20 21:59 39.550462 -119.766661 178 5208ft 101kts
21-Aug-20 22:00 39.521234 -119.766702 179 4610ft 104kts
21-Aug-20 22:01 39.499632 -119.766781 179 4418ft 37kts
21-Aug-20 22:02 39.497377 -119.765684 98 4418ft 0kts
21-Aug-20 22:03 39.497371 -119.765428 88 4418ft 3kts
21-Aug-20 22:04 39.499551 -119.765121 9 4418ft 11kts
21-Aug-20 22:05 39.500839 -119.764680 313 4418ft 5kts
21-Aug-20 22:06 39.501059 -119.764928 254 4418ft 0kts

Navigation Log

Ident Type
Flight plan parsing failed, navigation log unavailable